Pagrindinis puslapis
METAR-TAF:

METAR-TAF

Oro uostai :

Berlevåg, Norvegija

platuma: 70-52N, ilguma: 029-02E, Aukštis: 1 m

Dabartinis oras

Ataskaita buvo paskelbta 25 minutes, ne 09:50 UTC
Vėjas 16 kt iš Pietvakarių
Temperatūra 0°C
Drėgmė 86%
Slėgis 988 hPa
Matomumas 10 km arba daugiau
nėra debesų žemiau 1500 m ir nėra kamuolinių lietaus debesų

METAR: ENBV 290950Z 23016KT CAVOK 00/M02 Q0988

Laikas: 11:15 (10:15 UTC)

Prognozė

Ataskaita buvo paskelbta 2 valandos ir 15 minutes, ne 08:00 UTC
Prognozė galioja nuo 29 metu 09 UTC su 29 metu 18 UTC
Vėjas 15 kt iš Vakarų/Pietvakarių
Matomumas 10 km arba daugiau
Su prošvaistėmis ne aukštis 3000 ft
Tapsmas
nuo 29 metu 11 UTC su 29 metu 12 UTC
Vėjas 15 kt iš Vakarų/Šiaurės Vakarų
Laikinai
nuo 29 metu 10 UTC su 29 metu 18 UTC
Matomumas: 2500 m
ne aukštis 900 ft
sniegas, lietus

TAF: ENBV 290800Z 2909/2918 24015KT 9999 BKN030 BECMG 2911/2912 30015KT TEMPO 2910/2918 2500 SHSNRA VV009

Orai ataskaitas ir orų prognozės (METAR, TAF).

turimą stotys yra geltonos ir raudonos taškus žemėlapyje.

Perkelti pele per norėdami pamatyti stoties vardą.

Tada spustelėkite, norėdami matyti oro stebėjimo ir prognozės.

Norėdami pakeisti žemėlapį: spustelėkite ant žalios mygtukų su juodo kryžiaus žemyn,; žalią mygtuką su brūkšneliu, jei norite nutolinti; arba žalių rodyklių gretimoms žemėlapius.


METAR-TAF: